createdAt,value
2019-01-02T00:01:54.271Z,3.68
2019-01-02T00:04:23.522Z,3.74
2019-01-02T00:06:52.330Z,3.88
2019-01-02T00:09:21.223Z,3.94
2019-01-02T00:11:50.485Z,3.98
2019-01-02T00:14:19.313Z,3.99
2019-01-02T00:16:48.382Z,4.10
2019-01-02T00:19:17.826Z,4.14
2019-01-02T00:21:47.753Z,4.16
2019-01-02T00:24:16.564Z,4.16
2019-01-02T00:26:45.431Z,4.20
2019-01-02T00:29:14.318Z,4.18
2019-01-02T00:31:43.109Z,4.13
2019-01-02T00:34:11.925Z,4.09
2019-01-02T00:36:40.731Z,4.07
2019-01-02T00:39:09.854Z,3.93
2019-01-02T00:41:38.838Z,3.89
2019-01-02T00:44:08.089Z,3.82
2019-01-02T00:46:36.985Z,3.81
2019-01-02T00:49:06.134Z,3.70
2019-01-02T00:51:35.016Z,3.65
2019-01-02T00:54:04.434Z,3.64
2019-01-02T00:56:33.493Z,3.62
2019-01-02T00:59:02.737Z,3.58
2019-01-02T01:01:31.631Z,3.57
2019-01-02T01:04:00.778Z,3.59
2019-01-02T01:06:30.113Z,3.54
2019-01-02T01:08:59.251Z,3.54
2019-01-02T01:11:28.221Z,3.59
2019-01-02T01:13:57.365Z,3.63
2019-01-02T01:16:26.184Z,3.59
2019-01-02T01:18:55.305Z,3.60
2019-01-02T01:21:24.194Z,3.56
2019-01-02T01:23:53.375Z,3.50
2019-01-02T01:26:22.430Z,3.51
2019-01-02T01:28:51.178Z,3.40
2019-01-02T01:31:20.152Z,3.32
2019-01-02T01:33:48.939Z,3.30
2019-01-02T01:36:18.142Z,3.30
2019-01-02T01:38:47.028Z,3.15
2019-01-02T01:41:15.840Z,3.08
2019-01-02T01:43:44.918Z,2.99
2019-01-02T01:46:13.777Z,2.99
2019-01-02T01:48:43.017Z,3.12
2019-01-02T01:51:12.088Z,3.11
2019-01-02T01:53:41.011Z,3.09
2019-01-02T01:56:10.009Z,3.11
2019-01-02T01:58:38.828Z,3.11
2019-01-02T02:01:07.714Z,3.02
2019-01-02T02:03:36.626Z,3.13
2019-01-02T02:06:05.573Z,3.16
2019-01-02T02:08:34.720Z,3.12
2019-01-02T02:11:03.710Z,3.16
2019-01-02T02:13:32.527Z,3.21
2019-01-02T02:16:01.807Z,3.26
2019-01-02T02:18:30.667Z,3.23
2019-01-02T02:20:59.943Z,3.24
2019-01-02T02:23:28.926Z,3.23
2019-01-02T02:25:57.808Z,3.21
2019-01-02T02:28:26.783Z,3.29
2019-01-02T02:30:55.590Z,3.29
2019-01-02T02:33:24.777Z,3.25
2019-01-02T02:35:53.927Z,3.34
2019-01-02T02:38:23.170Z,3.31
2019-01-02T02:40:52.496Z,3.43
2019-01-02T02:43:21.321Z,3.49
2019-01-02T02:45:50.258Z,3.47
2019-01-02T02:48:19.535Z,3.54
2019-01-02T02:50:48.783Z,3.57
2019-01-02T02:53:17.864Z,3.61
2019-01-02T02:55:47.653Z,3.62
2019-01-02T02:58:16.832Z,3.62
2019-01-02T03:00:45.973Z,3.62
2019-01-02T03:03:15.176Z,3.61
2019-01-02T03:05:44.057Z,3.52
2019-01-02T03:08:12.857Z,3.51
2019-01-02T03:10:42.196Z,3.46
2019-01-02T03:13:11.392Z,3.46
2019-01-02T03:15:40.650Z,3.39
2019-01-02T03:18:09.722Z,3.35
2019-01-02T03:20:38.697Z,3.33
2019-01-02T03:23:07.519Z,3.29
2019-01-02T03:25:36.809Z,3.30
2019-01-02T03:28:06.000Z,3.24
2019-01-02T03:30:35.093Z,3.16
2019-01-02T03:33:04.540Z,3.18
2019-01-02T03:35:33.428Z,3.09
2019-01-02T03:38:02.234Z,3.15
2019-01-02T03:40:31.183Z,3.15
2019-01-02T03:42:59.993Z,3.17
2019-01-02T03:45:29.154Z,3.21
2019-01-02T03:47:58.045Z,3.11
2019-01-02T03:50:27.002Z,3.13
2019-01-02T03:52:56.147Z,3.27
2019-01-02T03:55:25.282Z,3.21
2019-01-02T03:57:54.161Z,3.28
2019-01-02T04:00:23.100Z,3.29
2019-01-02T04:02:51.902Z,3.22
2019-01-02T04:05:23.193Z,3.14
2019-01-02T04:07:56.347Z,3.10
2019-01-02T04:10:25.848Z,3.08
2019-01-02T04:12:54.725Z,3.10
2019-01-02T04:15:23.670Z,3.09
2019-01-02T04:17:52.562Z,3.17
2019-01-02T04:20:21.374Z,3.19
2019-01-02T04:22:50.172Z,3.18
2019-01-02T04:25:19.058Z,3.17
2019-01-02T04:27:48.169Z,3.18
2019-01-02T04:30:17.126Z,3.16
2019-01-02T04:32:46.085Z,3.16
2019-01-02T04:35:14.983Z,3.13
2019-01-02T04:37:43.898Z,3.11
2019-01-02T04:40:13.616Z,3.15
2019-01-02T04:42:42.625Z,3.18
2019-01-02T04:45:11.773Z,3.13
2019-01-02T04:47:40.924Z,3.12
2019-01-02T04:50:11.955Z,3.05
2019-01-02T04:52:40.758Z,3.08
2019-01-02T04:55:09.713Z,3.03
2019-01-02T04:57:38.688Z,2.95
2019-01-02T05:00:13.620Z,3.01
2019-01-02T05:02:42.422Z,3.10
2019-01-02T05:05:11.379Z,3.06
2019-01-02T05:07:40.181Z,3.08
2019-01-02T05:10:10.572Z,3.11
2019-01-02T05:12:39.515Z,3.09
2019-01-02T05:15:09.399Z,2.99
2019-01-02T05:17:38.405Z,2.97
2019-01-02T05:20:09.463Z,2.98
2019-01-02T05:22:38.446Z,3.04
2019-01-02T05:25:08.174Z,3.04
2019-01-02T05:27:37.234Z,3.03
2019-01-02T05:30:11.721Z,2.99
2019-01-02T05:32:40.548Z,3.04
2019-01-02T05:35:09.642Z,3.07
2019-01-02T05:37:38.556Z,3.02
2019-01-02T05:40:10.289Z,2.96
2019-01-02T05:42:39.163Z,3.08
2019-01-02T05:45:08.202Z,2.99
2019-01-02T05:47:37.054Z,2.98
2019-01-02T05:50:05.986Z,2.99
2019-01-02T05:52:34.784Z,2.94
2019-01-02T05:55:03.859Z,2.90
2019-01-02T05:57:32.676Z,2.94
2019-01-02T06:00:01.486Z,2.90
2019-01-02T06:02:30.499Z,2.93
2019-01-02T06:04:59.985Z,3.03
2019-01-02T06:07:28.763Z,3.11
2019-01-02T06:09:57.564Z,3.05
2019-01-02T06:12:26.459Z,3.07
2019-01-02T06:14:55.266Z,3.11
2019-01-02T06:17:24.136Z,3.14
2019-01-02T06:19:53.096Z,3.13
2019-01-02T06:22:22.060Z,3.05
2019-01-02T06:24:51.152Z,3.14
2019-01-02T06:27:20.032Z,3.06
2019-01-02T06:29:49.039Z,3.10
2019-01-02T06:32:17.929Z,3.03
2019-01-02T06:34:46.821Z,3.03
2019-01-02T06:37:15.620Z,2.99
2019-01-02T06:39:44.413Z,3.04
2019-01-02T06:42:13.364Z,2.98
2019-01-02T06:44:42.270Z,3.01
2019-01-02T06:47:11.144Z,3.05
2019-01-02T06:49:40.036Z,3.05
2019-01-02T06:52:09.020Z,3.00
2019-01-02T06:54:37.867Z,2.98
2019-01-02T06:57:06.689Z,2.96
2019-01-02T06:59:35.598Z,2.96
2019-01-02T07:02:04.390Z,3.01
2019-01-02T07:04:33.202Z,2.99
2019-01-02T07:07:02.658Z,3.03
2019-01-02T07:09:31.449Z,2.93
2019-01-02T07:12:00.400Z,2.96
2019-01-02T07:14:29.210Z,2.99
2019-01-02T07:16:58.160Z,2.93
2019-01-02T07:19:27.039Z,2.88
2019-01-02T07:21:55.979Z,2.84
2019-01-02T07:24:25.267Z,2.86
2019-01-02T07:26:54.082Z,2.84
2019-01-02T07:29:22.912Z,2.82
2019-01-02T07:31:51.735Z,2.85
2019-01-02T07:34:38.051Z,2.89
2019-01-02T07:37:50.123Z,2.89
2019-01-02T07:41:06.117Z,2.90
2019-01-02T07:44:25.175Z,2.88
2019-01-02T07:47:40.173Z,2.98
2019-01-02T07:50:46.959Z,2.98
2019-01-02T07:53:55.232Z,3.03
2019-01-02T07:56:51.155Z,3.03
2019-01-02T08:00:06.843Z,3.11
2019-01-02T08:02:58.335Z,3.09
2019-01-02T08:05:56.342Z,3.10
2019-01-02T08:08:45.864Z,3.12
2019-01-02T08:11:57.681Z,3.12
2019-01-02T08:15:08.823Z,3.12
2019-01-02T08:18:07.816Z,3.13
2019-01-02T08:21:14.059Z,3.10
2019-01-02T08:24:21.584Z,3.13
2019-01-02T08:27:13.823Z,3.13
2019-01-02T08:30:17.353Z,3.19
2019-01-02T08:33:10.138Z,3.24
2019-01-02T08:36:38.235Z,3.28
2019-01-02T08:39:43.048Z,3.23
2019-01-02T08:43:01.297Z,3.23
2019-01-02T08:46:17.384Z,3.27
2019-01-02T08:49:46.579Z,3.58
2019-01-02T08:52:34.070Z,3.77
2019-01-02T08:55:41.272Z,3.69
2019-01-02T08:58:42.593Z,3.66
2019-01-02T09:01:42.464Z,3.61
2019-01-02T09:04:26.040Z,3.73
2019-01-02T09:07:30.781Z,3.76
2019-01-02T09:10:40.122Z,3.75
2019-01-02T09:13:40.875Z,3.76
2019-01-02T09:16:53.832Z,3.70
2019-01-02T09:20:13.187Z,3.63
2019-01-02T09:22:51.604Z,3.49
2019-01-02T09:26:12.043Z,3.48
2019-01-02T09:29:24.989Z,3.50
2019-01-02T09:32:22.554Z,3.48
2019-01-02T09:35:28.517Z,3.50
2019-01-02T09:38:57.152Z,3.52
2019-01-02T09:42:04.118Z,3.41
2019-01-02T09:44:59.764Z,3.36
2019-01-02T09:48:12.556Z,3.29
2019-01-02T09:51:28.730Z,3.27
2019-01-02T09:54:34.791Z,3.23
2019-01-02T09:57:34.839Z,3.18
2019-01-02T10:00:43.623Z,3.18
2019-01-02T10:03:48.558Z,3.16
2019-01-02T10:06:40.450Z,3.19
2019-01-02T10:09:25.330Z,3.15
2019-01-02T10:12:04.174Z,3.26
2019-01-02T10:15:13.502Z,3.34
2019-01-02T10:18:11.897Z,3.43
2019-01-02T10:21:24.281Z,3.54
2019-01-02T10:24:28.783Z,3.66
2019-01-02T10:27:27.202Z,3.64
2019-01-02T10:30:46.171Z,3.56
2019-01-02T10:33:52.478Z,3.48
2019-01-02T10:36:57.503Z,3.45
2019-01-02T10:40:05.746Z,3.46
2019-01-02T10:43:18.606Z,3.40
2019-01-02T10:46:05.877Z,3.41
2019-01-02T10:49:30.710Z,3.41
2019-01-02T10:52:46.826Z,3.50
2019-01-02T10:55:33.961Z,3.50
2019-01-02T10:59:02.458Z,3.47
2019-01-02T11:02:10.808Z,3.54
2019-01-02T11:05:21.405Z,3.58
2019-01-02T11:08:23.262Z,3.53
2019-01-02T11:11:05.687Z,3.41
2019-01-02T11:13:50.750Z,3.32
2019-01-02T11:17:18.986Z,3.34
2019-01-02T11:20:50.588Z,3.41
2019-01-02T11:23:54.828Z,3.52
2019-01-02T11:26:48.605Z,3.45
2019-01-02T11:30:09.720Z,3.33
2019-01-02T11:33:12.721Z,3.33
2019-01-02T11:36:05.769Z,3.42
2019-01-02T11:39:29.746Z,3.51
2019-01-02T11:42:12.598Z,3.56
2019-01-02T11:45:15.028Z,3.66
2019-01-02T11:47:43.895Z,3.83
2019-01-02T11:50:14.551Z,3.92
2019-01-02T11:52:43.429Z,4.07
2019-01-02T11:55:12.975Z,4.09
2019-01-02T11:57:41.856Z,4.18
2019-01-02T12:00:16.022Z,4.27
2019-01-02T12:02:44.846Z,4.41
2019-01-02T12:05:13.812Z,4.34
2019-01-02T12:07:43.421Z,4.41
2019-01-02T12:10:13.861Z,4.53
2019-01-02T12:12:43.515Z,4.61
2019-01-02T12:15:12.577Z,4.71
2019-01-02T12:17:41.387Z,4.94
2019-01-02T12:20:11.400Z,4.79
2019-01-02T12:22:40.268Z,4.67
2019-01-02T12:25:09.203Z,4.76
2019-01-02T12:27:38.187Z,4.68
2019-01-02T12:30:10.779Z,4.75
2019-01-02T12:32:39.722Z,4.81
2019-01-02T12:35:08.678Z,4.69
2019-01-02T12:37:37.572Z,4.35
2019-01-02T12:40:07.925Z,3.79
2019-01-02T12:42:36.731Z,3.65
2019-01-02T12:45:06.257Z,3.65
2019-01-02T12:47:38.106Z,3.73
2019-01-02T12:50:09.160Z,3.84
2019-01-02T12:52:38.419Z,3.81
2019-01-02T12:55:07.526Z,3.76
2019-01-02T12:57:36.518Z,3.82
2019-01-02T13:00:09.289Z,3.90
2019-01-02T13:03:06.824Z,3.97
2019-01-02T13:06:15.503Z,4.03
2019-01-02T13:09:15.538Z,4.01
2019-01-02T13:12:22.321Z,3.97
2019-01-02T13:15:19.634Z,3.83
2019-01-02T13:18:29.410Z,3.73
2019-01-02T13:21:19.497Z,3.82
2019-01-02T13:24:26.078Z,3.90
2019-01-02T13:27:14.449Z,3.99
2019-01-02T13:30:30.537Z,3.98
2019-01-02T13:33:40.710Z,3.91
2019-01-02T13:36:38.995Z,3.94
2019-01-02T13:39:20.185Z,3.93
2019-01-02T13:41:55.530Z,4.00
2019-01-02T13:45:17.577Z,4.10
2019-01-02T13:48:20.945Z,4.13
2019-01-02T13:51:23.123Z,4.20
2019-01-02T13:53:52.068Z,4.35
2019-01-02T13:56:23.148Z,4.32
2019-01-02T13:58:52.001Z,4.35
2019-01-02T14:01:20.825Z,4.19
2019-01-02T14:03:56.051Z,4.20
2019-01-02T14:06:24.928Z,4.36
2019-01-02T14:08:53.885Z,4.45
2019-01-02T14:11:22.837Z,4.37
2019-01-02T14:13:51.739Z,4.32
2019-01-02T14:16:20.611Z,4.29
2019-01-02T14:18:49.415Z,4.30
2019-01-02T14:21:18.321Z,4.22
2019-01-02T14:23:47.505Z,4.18
2019-01-02T14:26:16.292Z,4.09
2019-01-02T14:28:45.186Z,4.11
2019-01-02T14:31:14.076Z,4.11
2019-01-02T14:33:42.895Z,4.03
2019-01-02T14:36:11.699Z,4.11
2019-01-02T14:38:40.505Z,4.05
2019-01-02T14:41:09.319Z,4.08
2019-01-02T14:43:38.136Z,4.01
2019-01-02T14:46:07.445Z,3.95
2019-01-02T14:48:36.604Z,3.88
2019-01-02T14:51:05.451Z,3.86
2019-01-02T14:53:35.536Z,3.79
2019-01-02T14:56:04.410Z,3.80
2019-01-02T14:58:33.324Z,3.90
2019-01-02T15:01:02.187Z,3.89
2019-01-02T15:03:31.262Z,3.89
2019-01-02T15:06:00.056Z,3.85
2019-01-02T15:08:28.964Z,3.73
2019-01-02T15:10:57.775Z,3.67
2019-01-02T15:13:26.571Z,3.72
2019-01-02T15:15:55.362Z,3.70
2019-01-02T15:18:24.382Z,3.58
2019-01-02T15:20:53.272Z,3.51
2019-01-02T15:23:22.092Z,3.47
2019-01-02T15:25:50.879Z,3.55
2019-01-02T15:28:19.687Z,3.64
2019-01-02T15:30:49.655Z,3.52
2019-01-02T15:33:18.473Z,3.47
2019-01-02T15:35:48.979Z,3.49
2019-01-02T15:38:17.977Z,3.44
2019-01-02T15:40:46.872Z,3.50
2019-01-02T15:43:15.699Z,3.50
2019-01-02T15:45:44.502Z,3.50
2019-01-02T15:48:13.394Z,3.42
2019-01-02T15:50:42.198Z,3.33
2019-01-02T15:53:10.983Z,3.17
2019-01-02T15:55:39.910Z,2.98
2019-01-02T15:58:08.717Z,2.88
2019-01-02T16:00:37.591Z,2.86
2019-01-02T16:03:06.459Z,2.76
2019-01-02T16:05:35.266Z,2.66
2019-01-02T16:08:04.138Z,2.64
2019-01-02T16:10:32.945Z,2.58
2019-01-02T16:13:01.757Z,2.59
2019-01-02T16:15:30.777Z,2.59
2019-01-02T16:17:59.575Z,2.54
2019-01-02T16:20:28.559Z,2.54
2019-01-02T16:22:57.437Z,2.56
2019-01-02T16:25:26.321Z,2.54
2019-01-02T16:27:55.196Z,2.47
2019-01-02T16:30:24.258Z,2.51
2019-01-02T16:32:53.118Z,2.48
2019-01-02T16:35:22.067Z,2.47
2019-01-02T16:37:51.857Z,2.54
2019-01-02T16:40:20.744Z,2.49
2019-01-02T16:42:49.595Z,2.49
2019-01-02T16:45:18.498Z,2.46
2019-01-02T16:47:47.368Z,2.52
2019-01-02T16:50:16.341Z,2.38
2019-01-02T16:52:45.139Z,2.27
2019-01-02T16:55:14.039Z,2.20
2019-01-02T16:57:42.935Z,2.23
2019-01-02T17:00:14.120Z,2.28
2019-01-02T17:02:43.114Z,2.10
2019-01-02T17:05:12.105Z,2.12
2019-01-02T17:07:40.994Z,2.13
2019-01-02T17:10:11.405Z,2.10
2019-01-02T17:12:40.466Z,2.00
2019-01-02T17:15:09.437Z,2.02
2019-01-02T17:17:38.315Z,1.95
2019-01-02T17:20:08.349Z,1.89
2019-01-02T17:22:37.260Z,1.93
2019-01-02T17:25:06.963Z,1.90
2019-01-02T17:27:35.823Z,1.85
2019-01-02T17:30:05.503Z,1.84
2019-01-02T17:32:34.327Z,1.80
2019-01-02T17:35:03.416Z,1.79
2019-01-02T17:37:32.281Z,1.79
2019-01-02T17:40:01.086Z,1.68
2019-01-02T17:42:29.978Z,1.64
2019-01-02T17:44:58.931Z,1.66
2019-01-02T17:47:27.710Z,1.57
2019-01-02T17:49:56.590Z,1.58
2019-01-02T17:52:25.382Z,1.63
2019-01-02T17:54:54.757Z,1.61
2019-01-02T17:57:23.637Z,1.55
2019-01-02T17:59:52.439Z,1.51
2019-01-02T18:02:21.323Z,1.40
2019-01-02T18:04:50.120Z,1.30
2019-01-02T18:07:18.996Z,1.27
2019-01-02T18:09:47.803Z,1.22
2019-01-02T18:12:16.676Z,1.29
2019-01-02T18:14:45.584Z,1.27
2019-01-02T18:17:14.454Z,1.20
2019-01-02T18:19:43.378Z,1.23
2019-01-02T18:22:12.199Z,1.20
2019-01-02T18:24:41.066Z,1.19
2019-01-02T18:27:09.855Z,1.15
2019-01-02T18:29:38.733Z,1.09
2019-01-02T18:32:07.702Z,1.08
2019-01-02T18:34:36.589Z,1.00
2019-01-02T18:37:05.547Z,1.09
2019-01-02T18:39:34.336Z,1.09
2019-01-02T18:42:03.232Z,1.09
2019-01-02T18:44:32.045Z,1.20
2019-01-02T18:47:00.942Z,1.26
2019-01-02T18:49:29.741Z,1.18
2019-01-02T18:51:58.651Z,1.18
2019-01-02T18:54:27.523Z,1.18
2019-01-02T18:56:57.154Z,1.12
2019-01-02T18:59:25.951Z,1.12
2019-01-02T19:01:54.790Z,1.14
2019-01-02T19:04:23.585Z,0.96
2019-01-02T19:06:52.525Z,0.92
2019-01-02T19:09:21.484Z,0.88
2019-01-02T19:11:50.382Z,0.82
2019-01-02T19:14:19.182Z,0.76
2019-01-02T19:16:48.065Z,0.78
2019-01-02T19:19:16.952Z,0.74
2019-01-02T19:21:45.840Z,0.84
2019-01-02T19:24:14.644Z,0.89
2019-01-02T19:26:43.532Z,0.84
2019-01-02T19:29:12.424Z,0.87
2019-01-02T19:31:41.338Z,0.82
2019-01-02T19:34:10.119Z,0.73
2019-01-02T19:36:39.088Z,0.73
2019-01-02T19:39:08.397Z,0.56
2019-01-02T19:41:37.352Z,0.48
2019-01-02T19:44:06.175Z,0.53
2019-01-02T19:46:35.049Z,0.42
2019-01-02T19:49:03.855Z,0.38
2019-01-02T19:51:32.659Z,0.32
2019-01-02T19:54:01.481Z,0.37
2019-01-02T19:56:30.383Z,0.47
2019-01-02T19:59:00.474Z,0.48
2019-01-02T20:01:29.520Z,0.44
2019-01-02T20:03:58.411Z,0.44
2019-01-02T20:06:27.230Z,0.59
2019-01-02T20:08:56.108Z,0.55
2019-01-02T20:11:24.994Z,0.44
2019-01-02T20:13:53.858Z,0.48
2019-01-02T20:16:22.827Z,0.47
2019-01-02T20:18:51.666Z,0.40
2019-01-02T20:21:20.550Z,0.36
2019-01-02T20:23:49.357Z,0.38
2019-01-02T20:26:18.163Z,0.31
2019-01-02T20:28:46.975Z,0.28
2019-01-02T20:31:15.787Z,0.21
2019-01-02T20:33:44.676Z,0.13
2019-01-02T20:36:13.464Z,0.07
2019-01-02T20:38:42.268Z,0.09
2019-01-02T20:41:11.063Z,0.08
2019-01-02T20:43:40.073Z,0.09
2019-01-02T20:46:08.998Z,0.15
2019-01-02T20:48:37.820Z,0.15
2019-01-02T20:51:06.710Z,0.20
2019-01-02T20:53:35.523Z,0.27
2019-01-02T20:56:04.418Z,0.12
2019-01-02T20:58:33.230Z,0.12
2019-01-02T21:01:02.124Z,0.18
2019-01-02T21:03:31.911Z,0.11
2019-01-02T21:06:00.715Z,0.11
2019-01-02T21:08:29.601Z,0.09
2019-01-02T21:10:58.392Z,0.14
2019-01-02T21:13:27.194Z,0.13
2019-01-02T21:15:56.282Z,0.19
2019-01-02T21:18:25.106Z,0.15
2019-01-02T21:20:54.264Z,0.12
2019-01-02T21:23:23.141Z,0.08
2019-01-02T21:25:52.050Z,0.05
2019-01-02T21:28:20.940Z,0.10
2019-01-02T21:30:49.741Z,0.12
2019-01-02T21:33:18.629Z,0.11
2019-01-02T21:35:47.540Z,0.08
2019-01-02T21:38:16.343Z,0.02
2019-01-02T21:40:45.230Z,-0.06
2019-01-02T21:43:14.100Z,-0.06
2019-01-02T21:45:42.916Z,-0.13
2019-01-02T21:48:11.805Z,-0.13
2019-01-02T21:50:40.685Z,-0.19
2019-01-02T21:53:09.772Z,-0.16
2019-01-02T21:55:38.832Z,-0.19
2019-01-02T21:58:07.649Z,-0.27
2019-01-02T22:02:40.414Z,-0.32
2019-01-02T22:05:08.725Z,-0.50
2019-01-02T22:07:37.696Z,-0.54
2019-01-02T22:10:07.014Z,-0.53
2019-01-02T22:12:35.833Z,-0.48
2019-01-02T22:15:05.318Z,-0.52
2019-01-02T22:17:35.113Z,-0.62
2019-01-02T22:20:04.314Z,-0.55
2019-01-02T22:22:33.214Z,-0.60
2019-01-02T22:25:02.101Z,-0.64
2019-01-02T22:27:30.985Z,-0.77
2019-01-02T22:29:59.797Z,-0.63
2019-01-02T22:32:28.671Z,-0.75
2019-01-02T22:34:57.617Z,-0.94
2019-01-02T22:37:26.477Z,-0.97
2019-01-02T22:39:55.300Z,-0.92
2019-01-02T22:42:24.174Z,-0.93
2019-01-02T22:44:53.017Z,-0.95
2019-01-02T22:47:21.869Z,-0.81
2019-01-02T22:49:50.685Z,-0.89
2019-01-02T22:52:19.560Z,-0.88
2019-01-02T22:54:48.439Z,-0.75
2019-01-02T22:57:17.226Z,-0.89
2019-01-02T22:59:46.147Z,-0.95
2019-01-02T23:02:24.179Z,-1.07
2019-01-02T23:05:12.349Z,-1.17
2019-01-02T23:08:03.250Z,-1.14
2019-01-02T23:10:50.284Z,-1.38
2019-01-02T23:13:47.969Z,-1.43
2019-01-02T23:16:36.832Z,-1.46
2019-01-02T23:19:23.727Z,-1.52
2019-01-02T23:22:23.762Z,-1.63
2019-01-02T23:25:14.025Z,-1.65
2019-01-02T23:28:05.150Z,-1.65
2019-01-02T23:31:01.893Z,-1.69
2019-01-02T23:33:47.886Z,-1.70
2019-01-02T23:36:38.736Z,-1.63
2019-01-02T23:39:27.386Z,-1.67
2019-01-02T23:42:19.629Z,-1.67
2019-01-02T23:45:05.719Z,-1.67
2019-01-02T23:47:47.968Z,-1.66
2019-01-02T23:50:54.167Z,-1.71
2019-01-02T23:53:44.232Z,-1.55
2019-01-02T23:56:31.028Z,-1.74
2019-01-02T23:59:13.173Z,-1.73
